Time;durP1;ratioP1;P1;durP2;ratioP2;P2;SDS_P1;SDS_P2;PMS_P1;PMS_P2;Temp;Humidity;BMP_temperature;BMP_pressure;BME280_temperature;BME280_humidity;BME280_pressure;Samples;Min_cycle;Max_cycle;Signal;HPM_P1;HPM_P2
2022/01/21 00:00:24;;;;;;;113.38;97.30;;;3.30;96.90;;;;;;5056310;28;20096;-78
2022/01/21 00:02:53;;;;;;;;;;;3.30;97.00;;;;;;5056624;28;20519;-78
2022/01/21 00:05:21;;;;;;;116.85;100.47;;;3.30;97.10;;;;;;5055306;28;19928;-78
2022/01/21 00:07:48;;;;;;;113.60;98.95;;;3.30;97.20;;;;;;5072320;28;20132;-77
2022/01/21 00:10:15;;;;;;;110.22;97.10;;;3.30;97.10;;;;;;5054896;28;20167;-78
2022/01/21 00:12:43;;;;;;;111.60;96.90;;;3.30;97.10;;;;;;5055714;28;20132;-78
2022/01/21 00:15:11;;;;;;;;;;;3.30;97.20;;;;;;5056356;28;20576;-78
2022/01/21 00:17:38;;;;;;;114.57;96.85;;;3.30;97.40;;;;;;5038955;28;20691;-78
2022/01/21 00:31:07;;;;;;;108.38;96.32;;;3.30;97.50;;;;;;5055764;28;20882;-78
2022/01/21 00:33:34;;;;;;;109.07;96.72;;;3.30;97.50;;;;;;5056025;28;20092;-78
2022/01/21 00:36:02;;;;;;;110.32;97.38;;;3.40;97.50;;;;;;5038992;28;20049;-78
2022/01/21 00:38:30;;;;;;;108.95;97.13;;;3.40;97.60;;;;;;5055476;28;20142;-78
2022/01/21 00:41:01;;;;;;;110.60;97.15;;;3.40;97.60;;;;;;5055550;28;20052;-78
2022/01/21 00:43:31;;;;;;;109.80;96.72;;;3.40;97.60;;;;;;5055773;28;20419;-78
2022/01/21 00:45:58;;;;;;;112.07;97.32;;;3.40;97.60;;;;;;5055608;28;20494;-79
2022/01/21 00:48:26;;;;;;;109.15;97.57;;;3.40;97.60;;;;;;5055517;28;20049;-78
2022/01/21 00:50:53;;;;;;;109.40;97.90;;;3.40;97.60;;;;;;5038891;28;20049;-78
2022/01/21 00:53:24;;;;;;;109.55;97.60;;;3.40;97.60;;;;;;5055909;28;20056;-78
2022/01/21 00:55:51;;;;;;;114.72;97.60;;;3.40;97.60;;;;;;5055120;28;20051;-78
2022/01/21 00:58:20;;;;;;;109.63;97.25;;;3.40;97.60;;;;;;5071845;28;20445;-78
2022/01/21 01:00:51;;;;;;;107.88;96.50;;;3.50;97.60;;;;;;5057260;28;20072;-78
2022/01/21 01:03:19;;;;;;;109.18;97.53;;;3.50;97.70;;;;;;5038812;28;20072;-78
2022/01/21 01:05:46;;;;;;;108.07;96.88;;;3.50;97.60;;;;;;5072190;28;20077;-78
2022/01/21 01:08:13;;;;;;;109.22;96.80;;;3.50;97.70;;;;;;5055038;28;20140;-77
2022/01/21 01:10:58;;;;;;;108.65;96.78;;;3.50;97.70;;;;;;5071959;28;20060;-78
2022/01/21 01:21:54;;;;;;;109.18;97.22;;;3.50;97.70;;;;;;5058592;28;20047;-78
2022/01/21 01:29:52;;;;;;;108.38;96.85;;;3.50;97.70;;;;;;5058487;28;20041;-78
2022/01/21 01:32:19;;;;;;;107.82;96.57;;;3.50;97.70;;;;;;5041658;28;20045;-78
2022/01/21 01:34:46;;;;;;;108.57;96.93;;;3.50;97.70;;;;;;5058438;28;20612;-78
2022/01/21 01:37:26;;;;;;;108.40;97.03;;;3.50;97.90;;;;;;5058295;28;20049;-78
2022/01/21 01:40:10;;;;;;;108.72;97.07;;;3.50;97.70;;;;;;5075653;28;20049;-78
2022/01/21 01:43:01;;;;;;;108.03;96.68;;;3.50;97.70;;;;;;5076378;28;20118;-78
2022/01/21 01:51:14;;;;;;;108.18;96.47;;;3.50;97.80;;;;;;5074921;28;20076;-78
2022/01/21 01:53:45;;;;;;;108.65;97.18;;;3.40;97.80;;;;;;5041965;28;20045;-79
2022/01/21 01:56:17;;;;;;;110.28;97.65;;;3.40;97.80;;;;;;5057918;28;20055;-78
2022/01/21 01:58:45;;;;;;;107.53;95.93;;;3.40;97.90;;;;;;5057993;28;20049;-78
2022/01/21 02:01:13;;;;;;;112.78;97.13;;;3.40;97.90;;;;;;5057834;28;20140;-78
2022/01/21 02:03:40;;;;;;;108.10;96.47;;;3.40;97.90;;;;;;5041636;28;20661;-78
2022/01/21 02:06:07;;;;;;;107.97;96.72;;;3.40;97.90;;;;;;5041299;28;20049;-78
2022/01/21 02:08:35;;;;;;;108.78;96.88;;;3.50;98.00;;;;;;5057910;28;20056;-78
2022/01/21 02:11:03;;;;;;;108.45;96.90;;;3.50;98.00;;;;;;5057655;28;20098;-78
2022/01/21 02:13:32;;;;;;;108.07;96.53;;;3.50;98.00;;;;;;5057395;28;20055;-78
2022/01/21 02:16:10;;;;;;;108.53;96.80;;;3.50;98.00;;;;;;5041037;28;20055;-78
2022/01/21 02:21:30;;;;;;;106.82;95.65;;;3.50;98.20;;;;;;5074757;28;20060;-78
2022/01/21 02:24:01;;;;;;;108.43;96.97;;;3.50;98.00;;;;;;5041363;28;20071;-78
2022/01/21 02:26:29;;;;;;;108.13;96.50;;;3.50;97.90;;;;;;5057401;28;20052;-78
2022/01/21 02:28:58;;;;;;;110.18;96.78;;;3.50;97.90;;;;;;5057195;28;20874;-78
2022/01/21 02:31:25;;;;;;;108.07;96.50;;;3.50;97.90;;;;;;5057278;28;20079;-78
2022/01/21 02:33:52;;;;;;;108.53;96.68;;;3.50;97.90;;;;;;5057452;28;20156;-78
2022/01/21 02:36:20;;;;;;;108.35;96.93;;;3.50;97.90;;;;;;5057548;28;20119;-78
2022/01/21 02:38:48;;;;;;;108.68;97.00;;;3.50;97.90;;;;;;5057000;28;20042;-78
2022/01/21 02:41:15;;;;;;;108.13;96.70;;;3.50;97.90;;;;;;5057013;28;20103;-78
2022/01/21 02:43:42;;;;;;;109.38;97.43;;;3.50;98.00;;;;;;5074382;28;20126;-78
2022/01/21 02:46:10;;;;;;;107.00;96.05;;;3.50;98.00;;;;;;5057323;28;20049;-78
2022/01/21 02:48:39;;;;;;;108.22;96.85;;;3.50;98.00;;;;;;5056663;28;20431;-78
2022/01/21 02:51:08;;;;;;;108.40;96.82;;;3.50;98.00;;;;;;5040490;28;20045;-78
2022/01/21 02:54:03;;;;;;;107.38;95.80;;;3.50;98.00;;;;;;5057054;28;20864;-78
2022/01/21 02:56:29;;;;;;;107.82;96.45;;;3.60;98.10;;;;;;5057078;28;20084;-78
2022/01/21 02:58:57;;;;;;;108.00;96.55;;;3.60;98.10;;;;;;5056683;28;20055;-78
2022/01/21 03:01:25;;;;;;;107.57;96.32;;;3.60;98.10;;;;;;5040545;28;20064;-78
2022/01/21 03:03:54;;;;;;;108.28;96.82;;;3.60;98.10;;;;;;5040424;28;20045;-78
2022/01/21 03:06:23;;;;;;;108.45;97.13;;;3.60;98.10;;;;;;5075311;28;20056;-77
2022/01/21 03:08:52;;;;;;;107.82;96.63;;;3.60;98.10;;;;;;5056872;28;20522;-78
2022/01/21 03:11:20;;;;;;;106.78;95.50;;;3.60;98.10;;;;;;5040257;28;20087;-78
2022/01/21 03:13:49;;;;;;;108.15;96.68;;;3.60;98.30;;;;;;5056492;28;20114;-78
2022/01/21 03:16:16;;;;;;;107.90;96.57;;;3.60;98.10;;;;;;5057137;28;20049;-78
2022/01/21 03:18:43;;;;;;;108.38;96.63;;;3.60;98.10;;;;;;5056675;28;20404;-78
2022/01/21 03:21:16;;;;;;;108.22;96.57;;;3.50;98.10;;;;;;5056569;28;20128;-78
2022/01/21 03:23:46;;;;;;;109.13;97.25;;;3.50;98.10;;;;;;5056663;28;20057;-78
2022/01/21 03:26:16;;;;;;;108.25;96.75;;;3.50;98.20;;;;;;5056534;28;20045;-78
2022/01/21 03:28:53;;;;;;;108.90;97.13;;;3.50;98.20;;;;;;5056121;28;20052;-77
2022/01/21 03:31:22;;;;;;;108.85;97.35;;;3.50;98.30;;;;;;5073569;28;20057;-78
2022/01/21 03:33:50;;;;;;;107.57;96.30;;;3.50;98.20;;;;;;5039955;28;20064;-79
2022/01/21 03:36:19;;;;;;;107.95;96.63;;;3.50;98.30;;;;;;5056573;28;20049;-78
2022/01/21 03:38:47;;;;;;;107.57;96.22;;;3.50;98.30;;;;;;5056284;28;20053;-78
2022/01/21 03:41:14;;;;;;;109.03;96.72;;;3.50;98.30;;;;;;5055844;28;20049;-78
2022/01/21 03:43:41;;;;;;;108.35;96.88;;;3.50;98.30;;;;;;5056524;28;20107;-78
2022/01/21 03:46:10;;;;;;;;;;;3.40;98.30;;;;;;5056823;28;20485;-78
2022/01/21 03:48:37;;;;;;;107.45;95.93;;;3.40;98.30;;;;;;5056694;28;20015;-78
2022/01/21 03:51:05;;;;;;;107.90;96.28;;;3.40;98.40;;;;;;5056251;28;20128;-78
2022/01/21 03:53:32;;;;;;;;;;;3.40;98.40;;;;;;5040034;28;20049;-78
2022/01/21 03:55:59;;;;;;;108.10;96.45;;;3.40;98.30;;;;;;5056112;28;19931;-78
2022/01/21 03:58:28;;;;;;;108.47;96.30;;;3.40;98.30;;;;;;5055225;28;20053;-78
2022/01/21 04:00:57;;;;;;;109.10;97.32;;;3.40;98.30;;;;;;5055421;28;20131;-78
2022/01/21 04:03:28;;;;;;;108.60;97.00;;;3.40;98.40;;;;;;5038756;28;20045;-78
2022/01/21 04:05:56;;;;;;;107.90;96.47;;;3.40;98.40;;;;;;5056128;28;20053;-78
2022/01/21 04:08:24;;;;;;;108.95;96.97;;;3.40;98.40;;;;;;5039353;28;20495;-78
2022/01/21 04:10:56;;;;;;;108.68;96.90;;;3.40;98.40;;;;;;5056023;28;20064;-77
2022/01/21 04:13:25;;;;;;;108.68;97.05;;;3.30;98.40;;;;;;5055416;28;20053;-78
2022/01/21 04:15:55;;;;;;;109.22;97.55;;;3.30;98.40;;;;;;5039265;28;20126;-78
2022/01/21 04:18:23;;;;;;;108.65;97.03;;;3.30;98.40;;;;;;5055544;28;20065;-78
2022/01/21 04:20:58;;;;;;;110.38;98.22;;;3.30;98.40;;;;;;5055803;28;20048;-78
2022/01/21 04:23:26;;;;;;;109.20;97.43;;;3.30;98.50;;;;;;5055800;28;20553;-78
2022/01/21 04:25:54;;;;;;;109.38;96.65;;;3.20;98.50;;;;;;5056012;28;20488;-78
2022/01/21 04:28:21;;;;;;;108.25;96.38;;;3.20;98.50;;;;;;5055570;28;20403;-78
2022/01/21 04:30:49;;;;;;;108.70;96.97;;;3.20;98.50;;;;;;5055840;28;20060;-78
2022/01/21 04:33:19;;;;;;;108.68;97.05;;;3.10;98.50;;;;;;5055821;28;20135;-78
2022/01/21 04:35:57;;;;;;;109.70;98.00;;;3.10;98.60;;;;;;5039095;28;20099;-78
2022/01/21 04:38:26;;;;;;;109.47;97.40;;;3.10;98.70;;;;;;5038766;28;20049;-78
2022/01/21 04:40:59;;;;;;;110.65;97.50;;;3.10;98.70;;;;;;5039462;28;20091;-78
2022/01/21 04:48:56;;;;;;;108.90;96.53;;;3.00;98.70;;;;;;5055607;28;20599;-78
2022/01/21 04:51:28;;;;;;;108.15;95.93;;;3.00;98.70;;;;;;5039013;28;20060;-78
2022/01/21 04:53:56;;;;;;;107.82;96.15;;;3.00;98.70;;;;;;5058844;28;20570;-78
2022/01/21 04:56:29;;;;;;;107.03;95.40;;;2.90;98.70;;;;;;5059352;28;20573;-78
2022/01/21 04:58:57;;;;;;;108.47;96.43;;;2.90;98.90;;;;;;5058917;28;20053;-78
2022/01/21 05:01:24;;;;;;;108.82;96.35;;;2.90;98.80;;;;;;5059123;28;20114;-78
2022/01/21 05:03:52;;;;;;;107.20;95.70;;;2.80;98.80;;;;;;5058961;28;20076;-78
2022/01/21 05:06:19;;;;;;;108.15;96.15;;;2.80;98.80;;;;;;5060240;28;20554;-78
2022/01/21 05:08:53;;;;;;;110.00;97.95;;;2.80;98.90;;;;;;5058615;28;20041;-78
2022/01/21 05:11:20;;;;;;;108.35;96.50;;;2.80;98.90;;;;;;5058711;28;20076;-78
2022/01/21 05:13:56;;;;;;;106.90;95.55;;;2.90;99.00;;;;;;5041881;28;20083;-78
2022/01/21 05:16:33;;;;;;;107.45;96.03;;;2.90;99.00;;;;;;5058821;28;20056;-78
2022/01/21 05:19:06;;;;;;;109.00;97.10;;;2.90;99.00;;;;;;5058626;28;20049;-78
2022/01/21 05:21:56;;;;;;;108.30;96.50;;;2.90;98.90;;;;;;5052362;28;20053;-78
2022/01/21 05:24:30;;;;;;;108.05;95.93;;;3.00;99.00;;;;;;5075432;28;20045;-78
2022/01/21 05:27:00;;;;;;;108.32;96.45;;;3.00;99.00;;;;;;5058314;28;20053;-78
2022/01/21 05:29:35;;;;;;;107.32;95.78;;;3.00;99.00;;;;;;5058399;28;20049;-78
2022/01/21 05:32:23;;;;;;;107.28;95.57;;;3.10;99.00;;;;;;5058392;28;20044;-78
2022/01/21 05:35:03;;;;;;;108.13;96.53;;;3.10;99.00;;;;;;5058388;28;20438;-78
2022/01/21 05:37:55;;;;;;;108.13;96.32;;;3.10;99.00;;;;;;5041805;28;20060;-78
2022/01/21 05:40:24;;;;;;;109.03;95.85;;;3.10;99.00;;;;;;5058287;28;20056;-78
2022/01/21 05:43:08;;;;;;;111.03;95.67;;;3.10;99.00;;;;;;5058654;28;20045;-78
2022/01/21 05:49:02;;;;;;;109.18;96.50;;;3.10;98.90;;;;;;5050013;28;20049;-78
2022/01/21 05:51:39;;;;;;;108.25;96.35;;;3.10;98.90;;;;;;5057895;28;20052;-78
2022/01/21 05:54:26;;;;;;;113.97;99.70;;;3.10;98.90;;;;;;5058154;28;20041;-78
2022/01/21 05:57:17;;;;;;;109.28;96.75;;;3.00;98.80;;;;;;5075263;28;20056;-78
2022/01/21 05:59:49;;;;;;;107.90;95.95;;;3.00;98.90;;;;;;5058033;28;20907;-78
2022/01/21 06:02:16;;;;;;;106.90;95.35;;;3.00;99.00;;;;;;5058027;28;20142;-79
2022/01/21 06:04:44;;;;;;;109.70;97.07;;;3.00;99.00;;;;;;5057703;28;20052;-78
2022/01/21 06:07:12;;;;;;;108.63;97.07;;;3.10;99.00;;;;;;5057491;28;20060;-79
2022/01/21 06:09:40;;;;;;;109.22;97.45;;;3.10;99.00;;;;;;5075116;28;20132;-78
2022/01/21 06:12:08;;;;;;;109.63;97.82;;;3.00;99.00;;;;;;5057630;28;20514;-78
2022/01/21 06:14:37;;;;;;;110.20;98.22;;;3.00;99.00;;;;;;5058004;28;20133;-78
2022/01/21 06:17:04;;;;;;;109.22;97.30;;;3.00;99.10;;;;;;5057760;28;20072;-78
2022/01/21 06:19:31;;;;;;;118.20;100.00;;;3.00;99.10;;;;;;5057645;28;20088;-78
2022/01/21 06:21:58;;;;;;;112.15;99.85;;;3.00;99.10;;;;;;5057747;28;20043;-78
2022/01/21 06:24:25;;;;;;;110.70;98.68;;;3.00;99.10;;;;;;5041253;28;20044;-78
2022/01/21 06:26:53;;;;;;;111.63;99.43;;;3.00;99.10;;;;;;5057448;28;20047;-78
2022/01/21 06:29:20;;;;;;;109.43;97.10;;;3.00;99.20;;;;;;5057307;28;20124;-78
2022/01/21 06:31:49;;;;;;;109.32;96.88;;;3.00;99.20;;;;;;5057423;28;20052;-78
2022/01/21 06:34:16;;;;;;;110.80;98.45;;;3.00;99.20;;;;;;5056980;28;20053;-78
2022/01/21 06:36:43;;;;;;;110.00;98.32;;;3.00;99.20;;;;;;5057362;28;20056;-78
2022/01/21 06:39:10;;;;;;;112.28;100.07;;;3.00;99.40;;;;;;5057142;28;20049;-78
2022/01/21 06:41:37;;;;;;;112.18;100.32;;;3.10;99.30;;;;;;5057482;28;20068;-78
2022/01/21 06:44:05;;;;;;;111.57;99.03;;;3.10;99.30;;;;;;5057202;28;20471;-78
2022/01/21 06:46:32;;;;;;;109.95;97.75;;;3.10;99.30;;;;;;5056989;28;20095;-78
2022/01/21 06:49:00;;;;;;;108.32;96.80;;;3.10;99.30;;;;;;5057247;28;20132;-78
2022/01/21 06:51:27;;;;;;;108.50;96.60;;;3.20;99.30;;;;;;5056897;28;20146;-78
2022/01/21 06:53:54;;;;;;;110.83;98.73;;;3.20;99.40;;;;;;5075183;28;20049;-78
2022/01/21 06:56:21;;;;;;;110.35;98.03;;;3.20;99.30;;;;;;5057040;28;20240;-78
2022/01/21 06:58:48;;;;;;;108.53;96.63;;;3.20;99.30;;;;;;5057233;28;20049;-78
2022/01/21 07:01:15;;;;;;;107.82;96.32;;;3.20;99.30;;;;;;5057115;28;20067;-78
2022/01/21 07:03:42;;;;;;;109.93;97.95;;;3.30;99.40;;;;;;5057053;28;20045;-78
2022/01/21 07:09:46;;;;;;;108.40;96.63;;;3.30;99.30;;;;;;4975408;28;20054;-78
2022/01/21 07:12:13;;;;;;;106.78;95.28;;;3.30;99.30;;;;;;4971541;28;20098;-78
2022/01/21 07:14:40;;;;;;;108.10;96.35;;;3.30;99.30;;;;;;4992915;28;20141;-78
2022/01/21 07:17:07;;;;;;;109.82;98.13;;;3.30;99.20;;;;;;4977233;28;20050;-79
2022/01/21 07:19:34;;;;;;;109.20;97.30;;;3.30;99.20;;;;;;4977652;28;20162;-79
2022/01/21 07:22:01;;;;;;;109.63;97.72;;;3.30;99.20;;;;;;4961799;28;20521;-78
2022/01/21 07:24:29;;;;;;;108.15;96.63;;;3.30;99.20;;;;;;4977677;28;20057;-78
2022/01/21 07:26:57;;;;;;;109.10;97.43;;;3.30;99.20;;;;;;4995313;28;20050;-79
2022/01/21 07:29:24;;;;;;;110.78;98.60;;;3.30;99.20;;;;;;4977620;28;20078;-78
2022/01/21 07:31:54;;;;;;;112.13;99.88;;;3.30;99.20;;;;;;4977433;28;20043;-78
2022/01/21 07:34:21;;;;;;;110.78;98.75;;;3.30;99.20;;;;;;4987517;28;20516;-78
2022/01/21 07:36:48;;;;;;;109.97;98.00;;;3.30;99.10;;;;;;4961110;28;20057;-78
2022/01/21 07:39:16;;;;;;;108.00;96.47;;;3.30;99.10;;;;;;4960665;28;20050;-80
2022/01/21 07:41:43;;;;;;;109.88;98.47;;;3.30;99.20;;;;;;4963078;28;20042;-80
2022/01/21 07:44:12;;;;;;;109.47;97.72;;;3.30;99.20;;;;;;4960884;28;20055;-80
2022/01/21 07:46:40;;;;;;;110.30;98.22;;;3.30;99.20;;;;;;4959702;28;20051;-80
2022/01/21 07:49:07;;;;;;;112.75;100.85;;;3.30;99.20;;;;;;4976754;28;20142;-80
2022/01/21 07:51:34;;;;;;;112.90;100.68;;;3.30;99.10;;;;;;4976410;28;20094;-78
2022/01/21 07:54:02;;;;;;;;;;;3.30;99.10;;;;;;4960995;28;20517;-78
2022/01/21 07:56:29;;;;;;;113.07;100.78;;;3.30;99.10;;;;;;4993427;28;20431;-78
2022/01/21 07:59:29;;;;;;;111.78;99.68;;;3.30;99.10;;;;;;4976584;28;20043;-78
2022/01/21 08:01:57;;;;;;;113.28;101.07;;;3.30;99.10;;;;;;4974719;28;20098;-79
2022/01/21 08:04:24;;;;;;;114.28;102.05;;;3.30;99.10;;;;;;4960820;28;20070;-79
2022/01/21 08:06:51;;;;;;;114.82;101.68;;;3.30;99.10;;;;;;4976966;28;20552;-78
2022/01/21 08:09:23;;;;;;;110.03;98.25;;;3.30;99.10;;;;;;4968795;28;20051;-78
2022/01/21 08:11:51;;;;;;;114.00;101.85;;;3.30;99.10;;;;;;4976784;28;20479;-78
2022/01/21 08:14:18;;;;;;;112.18;100.13;;;3.30;99.10;;;;;;4986626;28;20054;-81
2022/01/21 08:16:46;;;;;;;111.30;99.32;;;3.30;99.10;;;;;;4976713;28;20588;-81
2022/01/21 08:19:14;;;;;;;121.03;100.85;;;3.30;99.10;;;;;;4976585;28;20153;-81
2022/01/21 08:21:42;;;;;;;113.18;100.72;;;3.30;99.20;;;;;;4976892;28;20093;-81
2022/01/21 08:24:09;;;;;;;;;;;3.20;99.20;;;;;;4960998;28;20488;-81
2022/01/21 08:26:37;;;;;;;;;;;3.30;99.20;;;;;;4977217;28;19933;-80
2022/01/21 08:29:05;;;;;;;112.22;99.72;;;3.20;99.10;;;;;;4974986;28;19933;-79
2022/01/21 08:31:32;;;;;;;113.28;99.78;;;3.20;99.20;;;;;;4957210;28;20047;-78
2022/01/21 08:34:01;;;;;;;110.22;98.47;;;3.30;99.20;;;;;;4956918;28;20055;-79
2022/01/21 08:36:28;;;;;;;108.35;96.70;;;3.20;99.20;;;;;;4992543;28;20553;-79
2022/01/21 08:38:55;;;;;;;109.72;98.22;;;3.30;99.20;;;;;;4992694;28;20057;-79
2022/01/21 08:41:23;;;;;;;109.45;97.47;;;3.20;99.10;;;;;;4976800;28;20444;-79
2022/01/21 08:43:50;;;;;;;114.25;99.32;;;3.30;99.10;;;;;;4976705;28;20054;-79
2022/01/21 08:46:18;;;;;;;110.20;98.20;;;3.30;99.10;;;;;;4960393;28;20086;-80
2022/01/21 08:48:45;;;;;;;114.85;98.80;;;3.20;99.10;;;;;;4976261;28;20054;-80
2022/01/21 08:51:21;;;;;;;110.55;98.97;;;3.30;99.20;;;;;;4975538;28;20043;-79
2022/01/21 08:53:48;;;;;;;108.72;97.10;;;3.30;99.10;;;;;;4973865;28;20740;-80
2022/01/21 08:56:16;;;;;;;;;;;3.30;99.20;;;;;;4992646;28;20051;-80
2022/01/21 08:58:44;;;;;;;110.13;98.38;;;3.30;99.10;;;;;;4975768;28;20020;-80
2022/01/21 09:01:13;;;;;;;115.45;99.82;;;3.30;99.20;;;;;;4975069;28;20053;-80
2022/01/21 09:03:41;;;;;;;111.47;99.47;;;3.30;99.20;;;;;;4960143;28;20055;-80
2022/01/21 09:06:11;;;;;;;113.28;101.18;;;3.30;99.20;;;;;;4993340;28;20173;-80
2022/01/21 09:08:41;;;;;;;107.43;95.68;;;3.30;99.20;;;;;;4974892;28;20050;-77
2022/01/21 09:11:08;;;;;;;114.95;98.78;;;3.30;99.30;;;;;;4976108;28;20046;-78
2022/01/21 09:13:40;;;;;;;109.57;98.00;;;3.30;99.30;;;;;;4959435;28;20050;-79
2022/01/21 09:16:08;;;;;;;115.40;100.20;;;3.30;99.30;;;;;;4976486;28;20106;-79
2022/01/21 09:18:46;;;;;;;110.50;98.57;;;3.30;99.40;;;;;;4959917;28;20130;-80
2022/01/21 09:21:13;;;;;;;118.35;98.25;;;3.40;99.40;;;;;;4959853;28;20142;-80
2022/01/21 09:23:42;;;;;;;110.07;97.63;;;3.40;99.40;;;;;;4992165;28;20063;-79
2022/01/21 09:26:10;;;;;;;110.47;98.65;;;3.50;99.40;;;;;;4975827;28;20054;-80
2022/01/21 09:28:37;;;;;;;114.28;102.07;;;3.50;99.50;;;;;;4991793;28;20142;-79
2022/01/21 09:31:04;;;;;;;115.43;99.28;;;3.50;99.50;;;;;;4975378;28;20911;-81
2022/01/21 09:33:31;;;;;;;111.28;99.13;;;3.50;99.50;;;;;;4975869;28;20061;-81
2022/01/21 09:35:58;;;;;;;114.38;99.93;;;3.60;99.60;;;;;;4958652;28;20051;-82
2022/01/21 09:38:26;;;;;;;113.32;100.47;;;3.50;99.50;;;;;;4976309;28;20078;-80
2022/01/21 09:40:54;;;;;;;112.40;98.93;;;3.60;99.60;;;;;;4969434;28;20061;-81
2022/01/21 09:43:23;;;;;;;116.00;100.15;;;3.60;99.60;;;;;;4978920;28;20440;-81
2022/01/21 09:45:53;;;;;;;119.90;101.60;;;3.60;99.60;;;;;;4978670;28;20130;-81
2022/01/21 09:48:23;;;;;;;112.95;98.82;;;3.70;99.70;;;;;;4978268;28;20141;-84
2022/01/21 09:50:52;;;;;;;111.60;99.03;;;3.70;99.70;;;;;;4978815;28;20055;-85
2022/01/21 09:53:25;;;;;;;109.78;97.80;;;3.80;99.70;;;;;;4970810;28;20134;-83
2022/01/21 09:55:55;;;;;;;109.50;97.65;;;3.80;99.70;;;;;;4979407;28;20057;-83
2022/01/21 09:58:23;;;;;;;110.35;98.68;;;3.90;99.80;;;;;;4989793;28;20114;-82
2022/01/21 10:00:50;;;;;;;110.10;98.38;;;3.90;99.80;;;;;;4978552;28;20535;-81
2022/01/21 10:03:18;;;;;;;;;;;3.90;99.80;;;;;;4961809;28;20055;-81
2022/01/21 10:05:47;;;;;;;118.10;100.15;;;4.00;99.80;;;;;;4959883;28;19928;-80
2022/01/21 10:08:15;;;;;;;110.85;96.68;;;4.00;99.90;;;;;;4959139;28;20421;-83
2022/01/21 10:10:43;;;;;;;109.18;97.32;;;4.00;99.80;;;;;;4955107;28;20077;-83
2022/01/21 10:13:16;;;;;;;108.70;96.93;;;4.10;99.90;;;;;;4994652;28;20062;-81
2022/01/21 10:15:44;;;;;;;114.95;99.05;;;4.20;99.90;;;;;;4966076;28;20133;-82
2022/01/21 10:18:13;;;;;;;112.95;100.75;;;4.20;99.90;;;;;;4978583;28;20106;-81
2022/01/21 10:21:00;;;;;;;110.65;98.60;;;4.30;99.90;;;;;;4978662;28;20496;-78
2022/01/21 10:23:29;;;;;;;111.47;98.95;;;4.40;99.90;;;;;;4962743;28;20145;-80
2022/01/21 10:26:02;;;;;;;114.13;102.05;;;4.50;99.90;;;;;;4993684;28;20161;-79
2022/01/21 10:28:32;;;;;;;110.30;98.78;;;4.60;99.90;;;;;;4976436;28;20062;-81
2022/01/21 10:31:11;;;;;;;113.55;100.55;;;4.70;99.90;;;;;;4971477;28;20833;-80
2022/01/21 10:33:42;;;;;;;112.93;100.38;;;4.70;99.90;;;;;;4975654;28;20154;-80
2022/01/21 10:36:15;;;;;;;112.60;99.72;;;4.80;99.90;;;;;;4970532;28;20448;-81
2022/01/21 10:38:45;;;;;;;113.95;101.82;;;4.80;99.90;;;;;;4968039;28;20051;-80
2022/01/21 10:41:14;;;;;;;112.43;100.03;;;4.80;99.90;;;;;;4974770;28;20600;-78
2022/01/21 10:43:43;;;;;;;112.63;100.38;;;4.80;99.90;;;;;;4974126;28;20075;-80
2022/01/21 10:46:16;;;;;;;114.03;101.60;;;4.90;99.90;;;;;;4978012;28;20081;-80
2022/01/21 10:49:01;;;;;;;113.90;101.28;;;4.90;99.90;;;;;;4961753;28;20549;-83
2022/01/21 10:51:30;;;;;;;117.50;101.30;;;5.00;99.90;;;;;;4960886;28;20114;-79
2022/01/21 10:53:58;;;;;;;114.13;100.53;;;5.10;99.90;;;;;;4975676;28;20072;-79
2022/01/21 10:56:29;;;;;;;112.07;100.00;;;5.20;99.90;;;;;;4969787;28;20059;-79
2022/01/21 10:58:59;;;;;;;113.93;101.53;;;5.20;99.90;;;;;;4991252;28;20051;-79
2022/01/21 11:01:58;;;;;;;116.45;103.32;;;5.30;99.90;;;;;;4992302;28;20181;-79
2022/01/21 11:04:25;;;;;;;113.63;100.70;;;5.40;99.90;;;;;;4958051;28;20059;-78
2022/01/21 11:06:56;;;;;;;113.05;100.60;;;5.40;99.90;;;;;;4975367;28;20147;-79
2022/01/21 11:09:25;;;;;;;116.25;100.63;;;5.40;99.90;;;;;;4951212;28;20096;-83
2022/01/21 11:12:11;;;;;;;116.30;102.03;;;5.40;99.90;;;;;;4969548;28;20047;-86
2022/01/21 11:14:55;;;;;;;113.95;101.53;;;5.40;99.90;;;;;;4970867;28;20109;-83
2022/01/21 11:17:22;;;;;;;113.97;101.90;;;5.40;99.90;;;;;;4959804;28;20059;-80
2022/01/21 11:20:02;;;;;;;115.13;101.18;;;5.50;99.90;;;;;;4968703;28;20075;-83
2022/01/21 11:22:30;;;;;;;112.80;100.28;;;5.50;99.90;;;;;;4973371;28;20139;-82
2022/01/21 11:24:59;;;;;;;113.88;101.45;;;5.50;99.90;;;;;;4973214;28;20150;-82
2022/01/21 11:27:27;;;;;;;112.55;100.60;;;5.50;99.90;;;;;;4970775;28;20497;-82
2022/01/21 11:29:55;;;;;;;114.10;101.93;;;5.50;99.90;;;;;;4964711;28;20521;-81
2022/01/21 11:32:22;;;;;;;116.22;99.75;;;5.50;99.90;;;;;;4960780;28;20133;-82
2022/01/21 11:34:49;;;;;;;113.78;101.47;;;5.60;99.90;;;;;;4975039;28;20078;-83
2022/01/21 11:37:18;;;;;;;112.95;100.78;;;5.60;99.90;;;;;;4971464;28;20059;-81
2022/01/21 11:39:45;;;;;;;114.22;101.43;;;5.60;99.90;;;;;;4975901;28;20552;-83
2022/01/21 11:42:14;;;;;;;120.70;100.18;;;5.70;99.90;;;;;;4965088;28;20540;-83
2022/01/21 11:44:52;;;;;;;114.80;102.53;;;5.70;99.90;;;;;;4962419;28;20592;-83
2022/01/21 11:47:48;;;;;;;113.65;101.55;;;5.80;99.90;;;;;;4968438;28;20814;-82
2022/01/21 11:50:18;;;;;;;115.63;102.88;;;5.80;99.90;;;;;;4954707;28;20151;-82
2022/01/21 11:52:46;;;;;;;113.55;101.32;;;5.90;99.90;;;;;;4971390;28;20046;-81
2022/01/21 11:55:31;;;;;;;113.28;101.38;;;6.00;99.90;;;;;;4964478;28;20059;-81
2022/01/21 11:58:24;;;;;;;113.60;100.57;;;6.10;99.90;;;;;;4957790;28;20130;-81
2022/01/21 12:00:54;;;;;;;113.63;100.93;;;6.10;99.90;;;;;;4968510;28;20055;-84
2022/01/21 12:03:24;;;;;;;114.22;102.15;;;6.10;99.90;;;;;;4962186;28;20744;-82
2022/01/21 12:05:51;;;;;;;112.05;100.63;;;6.20;99.90;;;;;;4963351;28;20137;-84
2022/01/21 12:08:45;;;;;;;114.30;102.13;;;6.30;99.90;;;;;;4943433;28;20051;-81
2022/01/21 12:11:29;;;;;;;115.63;103.65;;;6.30;99.90;;;;;;4970461;28;20130;-79
2022/01/21 12:13:56;;;;;;;115.65;103.43;;;6.40;99.90;;;;;;4974803;28;20079;-82
2022/01/21 12:16:48;;;;;;;112.70;101.28;;;6.40;99.90;;;;;;4976972;28;20093;-81
2022/01/21 12:19:27;;;;;;;112.43;100.68;;;6.40;99.90;;;;;;4960411;28;20493;-78
2022/01/21 12:21:55;;;;;;;113.68;102.00;;;6.50;99.90;;;;;;4994603;28;20093;-80
2022/01/21 12:24:51;;;;;;;112.47;100.97;;;6.60;99.90;;;;;;4976423;28;20043;-79
2022/01/21 12:27:18;;;;;;;113.95;102.22;;;6.60;99.90;;;;;;4949925;28;20050;-83
2022/01/21 12:29:46;;;;;;;115.05;102.90;;;6.60;99.90;;;;;;4956510;28;20125;-79
2022/01/21 12:32:23;;;;;;;;;;;6.60;99.90;;;;;;4971058;28;20057;-80
2022/01/21 12:35:19;;;;;;;114.68;102.20;;;6.60;99.90;;;;;;4949047;28;19937;-80
2022/01/21 12:41:33;;;;;;;115.75;103.70;;;6.70;99.90;;;;;;4963846;28;20118;-78
2022/01/21 12:44:01;;;;;;;112.70;101.28;;;6.80;99.90;;;;;;4938626;28;20062;-81
2022/01/21 12:46:31;;;;;;;112.80;101.38;;;6.70;99.90;;;;;;4987679;28;20082;-81
2022/01/21 12:49:00;;;;;;;112.97;101.60;;;6.80;99.90;;;;;;4956028;28;20138;-80
2022/01/21 12:52:12;;;;;;;113.45;101.97;;;6.80;99.90;;;;;;4974831;28;20097;-80
2022/01/21 12:57:27;;;;;;;113.70;102.10;;;6.90;99.90;;;;;;4974978;28;20158;-82
2022/01/21 12:59:56;;;;;;;111.78;100.53;;;6.90;99.90;;;;;;4967418;28;20054;-82
2022/01/21 13:02:25;;;;;;;115.32;103.75;;;6.90;99.90;;;;;;4985491;28;20069;-81
2022/01/21 13:05:03;;;;;;;115.40;103.47;;;6.90;99.90;;;;;;4970580;28;20055;-81
2022/01/21 13:07:42;;;;;;;111.20;99.72;;;6.90;99.90;;;;;;4973132;28;20051;-82
2022/01/21 13:10:20;;;;;;;113.55;101.70;;;6.90;99.90;;;;;;4966890;28;20141;-82
2022/01/21 13:13:13;;;;;;;112.38;100.90;;;7.00;99.90;;;;;;4975347;28;20066;-82
2022/01/21 13:15:46;;;;;;;113.88;102.22;;;7.00;99.90;;;;;;4958570;28;20133;-83
2022/01/21 13:18:15;;;;;;;110.25;98.65;;;7.00;99.90;;;;;;4969338;28;20057;-80
2022/01/21 13:20:45;;;;;;;113.97;102.10;;;7.00;99.90;;;;;;4979420;28;20062;-79
2022/01/21 13:23:28;;;;;;;113.50;101.30;;;7.00;99.90;;;;;;4979140;28;20091;-80
2022/01/21 13:26:13;;;;;;;110.78;99.18;;;7.00;99.90;;;;;;4979597;28;20050;-80
2022/01/21 13:28:58;;;;;;;115.57;103.53;;;7.00;99.90;;;;;;4995722;28;20047;-81
2022/01/21 13:31:26;;;;;;;115.75;103.95;;;7.00;99.90;;;;;;4999594;28;20055;-80
2022/01/21 13:34:05;;;;;;;116.32;103.72;;;7.10;99.90;;;;;;4970425;28;20469;-81
2022/01/21 13:36:40;;;;;;;113.93;101.60;;;7.10;99.90;;;;;;4977018;28;20499;-80
2022/01/21 13:39:11;;;;;;;116.18;103.95;;;7.10;99.90;;;;;;4977617;28;20066;-80